createdAt,value
2019-02-09T00:00:09.771Z,12.20
2019-02-09T00:02:39.368Z,12.25
2019-02-09T00:05:09.185Z,12.68
2019-02-09T00:07:39.030Z,12.40
2019-02-09T00:10:08.996Z,12.43
2019-02-09T00:12:38.542Z,12.65
2019-02-09T00:15:08.331Z,12.30
2019-02-09T00:17:38.006Z,13.32
2019-02-09T00:20:07.853Z,12.28
2019-02-09T00:22:37.717Z,12.63
2019-02-09T00:25:07.445Z,12.73
2019-02-09T00:27:37.149Z,13.08
2019-02-09T00:30:06.876Z,13.98
2019-02-09T00:32:36.695Z,15.25
2019-02-09T00:35:06.358Z,19.15
2019-02-09T00:37:35.958Z,14.85
2019-02-09T00:40:06.215Z,13.60
2019-02-09T00:42:35.655Z,13.88
2019-02-09T00:45:06.421Z,14.28
2019-02-09T00:47:36.134Z,13.53
2019-02-09T00:50:06.283Z,13.88
2019-02-09T00:52:35.729Z,23.00
2019-02-09T00:55:06.421Z,13.45
2019-02-09T00:57:37.090Z,12.93
2019-02-09T01:00:13.275Z,13.50
2019-02-09T01:02:42.932Z,12.98
2019-02-09T01:22:35.314Z,12.40
2019-02-09T01:25:05.469Z,12.10
2019-02-09T01:27:35.208Z,12.13
2019-02-09T01:30:06.530Z,12.30
2019-02-09T01:32:36.331Z,12.00
2019-02-09T01:35:06.954Z,11.73
2019-02-09T01:37:36.595Z,10.85
2019-02-09T01:40:07.259Z,10.95
2019-02-09T01:42:36.803Z,10.15
2019-02-09T01:45:07.428Z,11.20
2019-02-09T01:47:37.043Z,10.60
2019-02-09T01:50:08.391Z,10.25
2019-02-09T02:09:59.883Z,9.78
2019-02-09T02:12:29.572Z,9.58
2019-02-09T02:14:59.256Z,9.48
2019-02-09T02:17:28.761Z,9.45
2019-02-09T02:19:58.513Z,9.63
2019-02-09T02:22:28.209Z,8.95
2019-02-09T02:24:57.726Z,9.13
2019-02-09T02:27:27.423Z,8.58
2019-02-09T02:29:56.964Z,11.80
2019-02-09T02:32:26.837Z,9.65
2019-02-09T02:34:56.363Z,9.18
2019-02-09T02:37:26.456Z,9.48
2019-02-09T02:39:56.529Z,9.23
2019-02-09T02:42:26.017Z,9.38
2019-02-09T02:44:55.697Z,9.33
2019-02-09T02:47:26.009Z,9.45
2019-02-09T02:49:55.672Z,8.85
2019-02-09T02:52:25.243Z,8.88
2019-02-09T02:54:54.853Z,8.95
2019-02-09T02:57:24.343Z,10.03
2019-02-09T02:59:53.851Z,9.43
2019-02-09T03:02:23.471Z,10.05
2019-02-09T03:04:53.386Z,10.05
2019-02-09T03:07:23.598Z,14.60
2019-02-09T03:09:53.198Z,9.30
2019-02-09T03:12:22.740Z,10.10
2019-02-09T03:14:52.325Z,10.25
2019-02-09T03:17:22.080Z,9.35
2019-02-09T03:19:51.623Z,9.88
2019-02-09T03:22:21.343Z,9.98
2019-02-09T03:24:51.161Z,9.80
2019-02-09T03:27:21.092Z,9.55
2019-02-09T03:29:50.812Z,9.43
2019-02-09T03:32:20.397Z,9.28
2019-02-09T03:34:51.117Z,10.23
2019-02-09T03:37:20.912Z,9.98
2019-02-09T03:39:50.445Z,10.20
2019-02-09T03:42:20.317Z,12.50
2019-02-09T03:44:49.905Z,10.50
2019-02-09T03:47:19.476Z,9.08
2019-02-09T03:49:49.240Z,9.48
2019-02-09T03:52:18.709Z,9.95
2019-02-09T03:54:48.299Z,10.40
2019-02-09T04:14:39.088Z,9.63
2019-02-09T04:17:08.868Z,9.35
2019-02-09T04:19:38.283Z,9.28
2019-02-09T04:22:08.107Z,9.43
2019-02-09T04:24:37.607Z,9.68
2019-02-09T04:27:07.277Z,9.85
2019-02-09T04:29:37.011Z,10.08
2019-02-09T04:32:06.587Z,12.88
2019-02-09T04:51:57.147Z,8.95
2019-02-09T05:11:49.348Z,11.60
2019-02-09T05:14:19.265Z,20.68
2019-02-09T05:16:48.990Z,13.38
2019-02-09T05:36:41.470Z,10.78
2019-02-09T05:39:11.157Z,11.18
2019-02-09T05:41:40.634Z,11.08
2019-02-09T05:44:10.324Z,12.03
2019-02-09T05:46:39.878Z,11.43
2019-02-09T05:49:09.591Z,11.08
2019-02-09T05:51:39.244Z,10.90
2019-02-09T05:54:08.695Z,11.48
2019-02-09T05:56:38.164Z,11.63
2019-02-09T05:59:07.908Z,11.40
2019-02-09T06:01:37.533Z,9.73
2019-02-09T06:04:07.146Z,10.30
2019-02-09T06:06:37.135Z,10.43
2019-02-09T06:09:08.363Z,10.38
2019-02-09T06:11:38.092Z,10.80
2019-02-09T06:14:07.567Z,10.28
2019-02-09T06:16:37.205Z,10.25
2019-02-09T06:19:07.113Z,10.38
2019-02-09T06:21:36.831Z,9.65
2019-02-09T06:24:06.491Z,10.45
2019-02-09T06:26:36.242Z,9.40
2019-02-09T06:29:05.683Z,9.50
2019-02-09T06:31:40.632Z,9.15
2019-02-09T06:34:05.236Z,9.30
2019-02-09T06:36:34.844Z,13.05
2019-02-09T06:39:04.601Z,22.07
2019-02-09T06:41:34.431Z,27.42
2019-02-09T06:44:04.112Z,21.77
2019-02-09T06:46:33.642Z,20.02
2019-02-09T06:49:03.498Z,13.58
2019-02-09T06:51:33.215Z,14.07
2019-02-09T06:54:02.975Z,39.63
2019-02-09T06:56:32.741Z,40.67
2019-02-09T06:59:02.439Z,41.63
2019-02-09T07:01:32.095Z,39.92
2019-02-09T07:04:01.720Z,38.15
2019-02-09T07:23:54.107Z,52.50
2019-02-09T07:26:23.872Z,56.20
2019-02-09T07:28:53.734Z,53.75
2019-02-09T07:31:23.644Z,50.63
2019-02-09T07:33:53.375Z,45.08
2019-02-09T07:36:23.163Z,42.05
2019-02-09T07:56:14.419Z,32.85
2019-02-09T07:58:43.990Z,37.25
2019-02-09T08:01:13.601Z,38.63
2019-02-09T08:03:43.243Z,41.00
2019-02-09T08:06:12.709Z,39.67
2019-02-09T08:08:42.433Z,40.40
2019-02-09T08:11:12.023Z,40.17
2019-02-09T08:13:41.742Z,40.33
2019-02-09T08:16:11.478Z,37.25
2019-02-09T08:18:41.231Z,34.80
2019-02-09T08:21:10.889Z,38.65
2019-02-09T08:23:40.464Z,38.35
2019-02-09T08:26:10.253Z,32.20
2019-02-09T08:28:40.007Z,30.17
2019-02-09T08:31:09.815Z,32.55
2019-02-09T08:33:39.491Z,35.85
2019-02-09T08:53:29.852Z,283.55
2019-02-09T08:55:59.515Z,34.73
2019-02-09T08:58:30.317Z,34.80
2019-02-09T09:00:59.948Z,32.17
2019-02-09T09:03:29.813Z,30.52
2019-02-09T09:05:59.378Z,30.17
2019-02-09T09:08:29.072Z,30.15
2019-02-09T09:10:59.087Z,27.98
2019-02-09T09:30:49.061Z,29.27
2019-02-09T09:56:44.821Z,25.70
2019-02-09T09:59:14.349Z,25.57
2019-02-09T10:01:43.993Z,24.70
2019-02-09T10:04:13.372Z,24.55
2019-02-09T10:06:43.679Z,25.68
2019-02-09T10:09:13.122Z,24.60
2019-02-09T10:11:43.123Z,25.80
2019-02-09T10:14:12.498Z,26.25
2019-02-09T10:16:42.064Z,33.35
2019-02-09T10:19:11.565Z,29.65
2019-02-09T10:21:41.056Z,24.85
2019-02-09T10:41:30.606Z,25.97
2019-02-09T10:44:00.175Z,25.82
2019-02-09T10:46:29.879Z,25.95
2019-02-09T11:06:21.674Z,26.27
2019-02-09T11:08:51.405Z,28.00
2019-02-09T11:11:21.207Z,27.55
2019-02-09T11:13:50.988Z,26.10
2019-02-09T11:33:42.113Z,28.42
2019-02-09T11:36:11.294Z,27.82
2019-02-09T11:38:40.834Z,29.35
2019-02-09T11:41:11.060Z,27.80
2019-02-09T11:43:40.415Z,28.75
2019-02-09T11:46:10.207Z,30.17
2019-02-09T11:48:39.636Z,29.18
2019-02-09T11:51:09.268Z,29.45
2019-02-09T11:53:38.850Z,28.73
2019-02-09T11:56:08.449Z,29.23
2019-02-09T12:15:59.997Z,26.48
2019-02-09T12:18:29.726Z,26.37
2019-02-09T12:20:59.543Z,28.02
2019-02-09T12:23:29.183Z,30.95
2019-02-09T12:25:58.756Z,28.20
2019-02-09T12:28:28.456Z,26.95
2019-02-09T12:30:58.110Z,26.00
2019-02-09T12:33:27.722Z,25.03
2019-02-09T12:35:57.459Z,23.57
2019-02-09T12:38:27.732Z,24.87
2019-02-09T12:40:57.373Z,25.23
2019-02-09T12:43:27.083Z,26.97
2019-02-09T12:45:56.920Z,25.75
2019-02-09T12:48:26.387Z,27.32
2019-02-09T12:50:56.112Z,23.90
2019-02-09T12:53:25.858Z,24.80
2019-02-09T12:55:55.453Z,29.05
2019-02-09T12:58:25.045Z,27.95
2019-02-09T13:00:54.579Z,27.05
2019-02-09T13:03:30.983Z,29.17
2019-02-09T13:05:55.492Z,25.60
2019-02-09T13:08:25.116Z,24.17
2019-02-09T13:10:54.725Z,25.20
2019-02-09T13:13:24.227Z,24.77
2019-02-09T13:15:53.950Z,26.10
2019-02-09T13:18:23.679Z,25.13
2019-02-09T13:20:53.395Z,24.37
2019-02-09T13:23:23.065Z,25.87
2019-02-09T13:25:52.681Z,24.60
2019-02-09T13:28:22.315Z,26.80
2019-02-09T13:30:52.051Z,26.27
2019-02-09T13:33:21.567Z,24.77
2019-02-09T13:35:51.127Z,25.20
2019-02-09T13:58:35.206Z,69.30
2019-02-09T14:01:04.851Z,25.93
2019-02-09T14:03:34.292Z,25.77
2019-02-09T14:06:08.200Z,25.47
2019-02-09T14:08:33.868Z,26.27
2019-02-09T14:11:03.447Z,26.07
2019-02-09T14:13:33.178Z,28.33
2019-02-09T14:16:08.261Z,26.53
2019-02-09T14:18:32.324Z,26.30
2019-02-09T14:21:01.918Z,24.93
2019-02-09T14:23:31.487Z,25.27
2019-02-09T14:26:01.199Z,25.20
2019-02-09T14:28:30.918Z,23.70
2019-02-09T14:48:22.512Z,23.10
2019-02-09T14:50:52.248Z,23.47
2019-02-09T14:53:21.972Z,22.40
2019-02-09T14:55:51.654Z,22.30
2019-02-09T14:58:21.262Z,22.23
2019-02-09T15:00:52.447Z,22.67
2019-02-09T15:03:26.948Z,29.13
2019-02-09T15:05:52.099Z,23.57
2019-02-09T15:08:21.783Z,22.40
2019-02-09T15:10:51.408Z,22.15
2019-02-09T15:13:21.087Z,21.65
2019-02-09T15:16:02.469Z,23.05
2019-02-09T15:18:32.297Z,22.10
2019-02-09T15:21:02.559Z,22.80
2019-02-09T15:23:32.454Z,23.22
2019-02-09T15:26:02.402Z,23.15
2019-02-09T15:28:31.985Z,24.20
2019-02-09T15:31:01.720Z,23.50
2019-02-09T15:33:31.401Z,28.62
2019-02-09T15:36:01.237Z,28.38
2019-02-09T15:47:11.756Z,25.32
2019-02-09T15:49:41.119Z,28.02
2019-02-09T15:52:10.837Z,34.65
2019-02-09T15:54:40.391Z,33.48
2019-02-09T15:57:10.084Z,44.15
2019-02-09T15:59:39.848Z,35.13
2019-02-09T16:02:10.072Z,33.15
2019-02-09T16:04:40.178Z,34.30
2019-02-09T16:07:10.440Z,32.85
2019-02-09T16:09:40.214Z,30.72
2019-02-09T16:12:09.758Z,29.87
2019-02-09T16:14:39.342Z,28.85
2019-02-09T16:17:08.984Z,29.75
2019-02-09T16:19:38.662Z,35.20
2019-02-09T16:22:08.507Z,30.30
2019-02-09T16:24:38.066Z,31.60
2019-02-09T16:27:07.806Z,34.10
2019-02-09T16:29:37.603Z,34.50
2019-02-09T16:32:07.447Z,36.98
2019-02-09T16:34:37.046Z,40.08
2019-02-09T16:37:06.397Z,36.40
2019-02-09T16:39:36.017Z,37.88
2019-02-09T16:42:05.673Z,38.15
2019-02-09T16:44:35.486Z,41.53
2019-02-09T16:47:04.949Z,39.65
2019-02-09T16:49:34.579Z,41.48
2019-02-09T16:52:04.113Z,40.98
2019-02-09T16:54:33.536Z,41.13
2019-02-09T16:57:03.162Z,41.50
2019-02-09T16:59:32.873Z,43.85
2019-02-09T17:02:02.735Z,41.98
2019-02-09T17:04:33.355Z,41.55
2019-02-09T17:07:02.179Z,45.05
2019-02-09T17:09:31.755Z,41.92
2019-02-09T17:12:01.480Z,47.53
2019-02-09T17:14:31.622Z,66.20
2019-02-09T17:17:01.387Z,46.68
2019-02-09T17:19:31.130Z,42.30
2019-02-09T17:22:00.945Z,44.00
2019-02-09T17:24:30.535Z,43.45
2019-02-09T17:27:00.037Z,44.63
2019-02-09T17:29:29.703Z,54.50
2019-02-09T17:31:59.483Z,43.73
2019-02-09T17:34:29.429Z,45.25
2019-02-09T17:36:59.510Z,101.60
2019-02-09T17:39:29.283Z,69.87
2019-02-09T17:41:59.080Z,50.20
2019-02-09T17:44:28.931Z,48.95
2019-02-09T17:46:58.583Z,47.95
2019-02-09T17:49:28.044Z,48.48
2019-02-09T17:51:58.859Z,47.85
2019-02-09T17:54:28.636Z,51.45
2019-02-09T17:56:58.193Z,55.10
2019-02-09T17:59:27.829Z,58.95
2019-02-09T18:01:57.574Z,49.00
2019-02-09T18:04:27.128Z,50.95
2019-02-09T18:06:57.070Z,49.38
2019-02-09T18:09:26.732Z,50.95
2019-02-09T18:11:56.344Z,50.80
2019-02-09T18:14:26.700Z,116.45
2019-02-09T18:16:56.488Z,63.83
2019-02-09T18:19:25.902Z,45.98
2019-02-09T18:21:55.810Z,50.63
2019-02-09T18:24:26.130Z,54.18
2019-02-09T18:26:55.873Z,52.10
2019-02-09T18:29:25.685Z,49.20
2019-02-09T18:31:55.485Z,49.45
2019-02-09T18:34:25.003Z,56.40
2019-02-09T18:36:54.611Z,55.43
2019-02-09T18:39:24.107Z,54.63
2019-02-09T18:41:53.576Z,55.10
2019-02-09T18:44:23.244Z,58.23
2019-02-09T18:46:52.751Z,58.98
2019-02-09T18:49:22.369Z,61.08
2019-02-09T18:51:52.663Z,63.42
2019-02-09T18:54:22.117Z,60.75
2019-02-09T18:56:51.751Z,59.50
2019-02-09T18:59:21.525Z,74.60
2019-02-09T19:01:51.104Z,60.23
2019-02-09T19:04:20.930Z,58.50
2019-02-09T19:06:51.084Z,55.43
2019-02-09T19:09:22.316Z,66.22
2019-02-09T19:11:50.555Z,57.27
2019-02-09T19:14:20.177Z,100.30
2019-02-09T19:16:49.656Z,80.20
2019-02-09T19:19:19.417Z,95.83
2019-02-09T19:21:49.635Z,101.50
2019-02-09T19:24:19.415Z,205.47
2019-02-09T19:26:49.121Z,199.23
2019-02-09T19:29:18.636Z,165.45
2019-02-09T19:31:48.332Z,139.03
2019-02-09T19:34:18.037Z,141.53
2019-02-09T19:36:47.647Z,216.85
2019-02-09T19:39:17.180Z,189.18
2019-02-09T19:41:46.896Z,186.10
2019-02-09T19:44:16.683Z,195.57
2019-02-09T19:46:46.387Z,198.60
2019-02-09T19:49:16.409Z,175.72
2019-02-09T19:51:46.105Z,160.65
2019-02-09T19:54:15.811Z,129.20
2019-02-09T19:56:45.756Z,130.43
2019-02-09T19:59:15.467Z,130.50
2019-02-09T20:01:46.047Z,126.90
2019-02-09T20:04:15.503Z,124.25
2019-02-09T20:06:45.252Z,125.22
2019-02-09T20:09:15.099Z,122.20
2019-02-09T20:11:44.633Z,134.60
2019-02-09T20:14:14.577Z,144.37
2019-02-09T20:16:44.060Z,140.97
2019-02-09T20:19:13.688Z,144.45
2019-02-09T20:21:43.300Z,143.02
2019-02-09T20:24:12.815Z,174.80
2019-02-09T20:26:42.647Z,184.15
2019-02-09T20:29:12.525Z,203.22
2019-02-09T20:31:42.504Z,218.27
2019-02-09T20:34:12.212Z,247.55
2019-02-09T20:36:41.997Z,282.57
2019-02-09T20:39:11.678Z,279.07
2019-02-09T20:41:41.255Z,293.97
2019-02-09T20:44:10.892Z,324.98
2019-02-09T20:46:40.651Z,312.10
2019-02-09T20:49:10.197Z,324.23
2019-02-09T20:51:39.992Z,360.43
2019-02-09T20:54:09.762Z,384.10
2019-02-09T20:56:39.246Z,390.18
2019-02-09T20:59:09.579Z,381.08
2019-02-09T21:01:39.114Z,364.90
2019-02-09T21:04:08.810Z,352.18
2019-02-09T21:06:38.428Z,354.50
2019-02-09T21:09:08.844Z,409.10
2019-02-09T21:11:38.552Z,357.45
2019-02-09T21:14:07.999Z,345.65
2019-02-09T21:16:37.610Z,354.60
2019-02-09T21:19:07.392Z,341.80
2019-02-09T21:21:37.144Z,166.35
2019-02-09T21:24:07.396Z,178.85
2019-02-09T21:26:37.180Z,146.07
2019-02-09T21:29:06.944Z,262.38
2019-02-09T21:31:36.591Z,163.47
2019-02-09T21:34:06.272Z,131.18
2019-02-09T21:36:35.737Z,204.40
2019-02-09T21:39:09.142Z,92.65
2019-02-09T21:41:38.625Z,72.75
2019-02-09T21:44:08.396Z,120.75
2019-02-09T21:46:38.367Z,137.80
2019-02-09T21:49:08.161Z,115.80
2019-02-09T21:51:37.854Z,96.97
2019-02-09T21:54:07.328Z,85.65
2019-02-09T21:56:36.987Z,85.25
2019-02-09T21:59:06.809Z,77.27
2019-02-09T22:01:36.751Z,76.97
2019-02-09T22:04:06.464Z,67.25
2019-02-09T22:06:36.065Z,55.63
2019-02-09T22:09:07.298Z,60.55
2019-02-09T22:11:36.881Z,58.73
2019-02-09T22:14:06.726Z,52.80
2019-02-09T22:16:36.952Z,43.35
2019-02-09T22:19:05.882Z,43.63
2019-02-09T22:21:35.589Z,36.75
2019-02-09T22:24:05.317Z,38.67
2019-02-09T22:26:35.144Z,36.33
2019-02-09T22:29:04.804Z,36.53
2019-02-09T22:31:34.395Z,33.05
2019-02-09T22:34:04.165Z,30.75
2019-02-09T22:36:37.236Z,29.32
2019-02-09T22:39:03.720Z,27.67
2019-02-09T22:41:33.439Z,26.73
2019-02-09T22:44:02.917Z,29.27
2019-02-09T22:46:32.752Z,32.95
2019-02-09T22:49:02.124Z,34.15
2019-02-09T22:51:32.355Z,32.70
2019-02-09T22:54:02.003Z,32.93
2019-02-09T22:56:31.691Z,53.50
2019-02-09T22:59:01.438Z,31.85
2019-02-09T23:01:40.050Z,32.15
2019-02-09T23:04:24.902Z,30.52
2019-02-09T23:07:00.139Z,28.47
2019-02-09T23:09:31.462Z,29.95
2019-02-09T23:12:01.031Z,28.30
2019-02-09T23:14:30.812Z,26.95
2019-02-09T23:17:00.515Z,30.43
2019-02-09T23:19:30.080Z,28.92
2019-02-09T23:21:59.492Z,30.23
2019-02-09T23:24:29.114Z,31.75
2019-02-09T23:26:58.791Z,33.35
2019-02-09T23:29:28.529Z,38.40
2019-02-09T23:31:59.015Z,39.95
2019-02-09T23:34:28.820Z,39.92
2019-02-09T23:36:58.592Z,41.02
2019-02-09T23:39:28.035Z,41.33
2019-02-09T23:41:57.583Z,42.27
2019-02-09T23:44:27.313Z,40.55
2019-02-09T23:46:57.033Z,42.58
2019-02-09T23:49:26.861Z,42.03
2019-02-09T23:51:56.427Z,42.03
2019-02-09T23:54:26.080Z,42.40
2019-02-09T23:56:55.625Z,44.35
2019-02-09T23:59:25.179Z,45.80
